Time;durP1;ratioP1;P1;durP2;ratioP2;P2;SDS_P1;SDS_P2;PMS_P1;PMS_P2;Temp;Humidity;BMP_temperature;BMP_pressure;BME280_temperature;BME280_humidity;BME280_pressure;Samples;Min_cycle;Max_cycle;Signal;HPM_P1;HPM_P2
2022/01/06 00:00:13;;;;;;;9.25;2.10;;;2.70;1.00;;;;;;5135869;27;20087;-72
2022/01/06 00:02:40;;;;;;;4.22;1.70;;;2.70;1.00;;;;;;5135589;27;20101;-72
2022/01/06 00:05:07;;;;;;;10.48;2.90;;;2.60;1.00;;;;;;5136239;27;20072;-72
2022/01/06 00:07:33;;;;;;;9.18;2.60;;;2.50;1.00;;;;;;5135979;27;20045;-72
2022/01/06 00:10:00;;;;;;;7.25;2.40;;;2.60;1.00;;;;;;5136009;27;20102;-73
2022/01/06 00:12:38;;;;;;;8.38;2.03;;;2.50;1.00;;;;;;5135771;27;20023;-72
2022/01/06 00:16:00;;;;;;;12.00;2.75;;;2.50;1.00;;;;;;5135585;27;20137;-72
2022/01/06 00:18:15;;;;;;;9.32;2.20;;;2.40;1.00;;;;;;5119247;27;20074;-72
2022/01/06 00:23:31;;;;;;;13.00;2.90;;;2.40;1.00;;;;;;5135769;27;20156;-72
2022/01/06 00:25:58;;;;;;;6.13;2.30;;;2.40;1.00;;;;;;5135393;27;20056;-72
2022/01/06 00:28:24;;;;;;;5.47;2.00;;;2.40;1.00;;;;;;5136272;27;20484;-72
2022/01/06 00:30:50;;;;;;;6.90;2.55;;;2.60;1.00;;;;;;5136020;27;20477;-72
2022/01/06 00:33:17;;;;;;;8.73;2.72;;;2.50;1.00;;;;;;5135629;27;20116;-72
2022/01/06 00:35:43;;;;;;;9.55;2.08;;;2.60;1.00;;;;;;5135527;27;20192;-72
2022/01/06 00:38:09;;;;;;;9.40;1.80;;;2.40;1.00;;;;;;5135841;28;20501;-72
2022/01/06 00:40:36;;;;;;;10.40;2.67;;;2.50;1.00;;;;;;5135259;28;20122;-72
2022/01/06 00:43:04;;;;;;;8.63;2.75;;;2.50;1.00;;;;;;5136029;28;20045;-72
2022/01/06 00:45:31;;;;;;;5.53;1.90;;;2.50;1.00;;;;;;5135738;28;20539;-72
2022/01/06 00:47:57;;;;;;;8.70;2.13;;;2.50;1.00;;;;;;5135597;27;20043;-72
2022/01/06 00:50:24;;;;;;;10.00;2.17;;;2.40;1.00;;;;;;5135463;28;20035;-72
2022/01/06 00:52:50;;;;;;;9.93;1.98;;;2.50;1.00;;;;;;5135659;28;20492;-72
2022/01/06 00:55:16;;;;;;;7.95;2.28;;;2.40;1.00;;;;;;5136015;28;20038;-72
2022/01/06 00:57:42;;;;;;;4.85;2.00;;;2.30;1.00;;;;;;5135712;28;20056;-72
2022/01/06 01:00:09;;;;;;;7.38;2.47;;;2.10;1.00;;;;;;5135401;28;20019;-72
2022/01/06 01:02:35;;;;;;;7.78;2.28;;;2.10;1.00;;;;;;5135485;27;20166;-72
2022/01/06 01:05:02;;;;;;;9.48;2.67;;;2.20;1.00;;;;;;5135613;28;20473;-72
2022/01/06 01:07:28;;;;;;;5.70;2.05;;;2.30;1.00;;;;;;5135546;28;20042;-72
2022/01/06 01:09:54;;;;;;;7.95;2.50;;;2.30;1.00;;;;;;5135959;28;20439;-72
2022/01/06 01:12:22;;;;;;;8.23;1.92;;;2.20;1.00;;;;;;5135594;28;20039;-72
2022/01/06 01:15:04;;;;;;;12.15;3.47;;;2.20;1.00;;;;;;5135718;28;20484;-72
2022/01/06 01:17:30;;;;;;;9.35;2.05;;;2.20;1.00;;;;;;5134891;28;20027;-72
2022/01/06 01:19:56;;;;;;;10.32;2.00;;;2.50;1.00;;;;;;5134987;28;20027;-72
2022/01/06 01:22:22;;;;;;;9.18;1.92;;;2.60;1.00;;;;;;5135398;28;20031;-72
2022/01/06 01:24:48;;;;;;;6.88;2.28;;;2.60;1.00;;;;;;5135704;28;20125;-72
2022/01/06 01:27:16;;;;;;;13.20;2.40;;;2.60;1.00;;;;;;5135121;28;20110;-72
2022/01/06 01:29:56;;;;;;;10.15;2.10;;;2.50;1.00;;;;;;5135368;28;20510;-72
2022/01/06 01:32:32;;;;;;;9.52;2.30;;;2.30;1.00;;;;;;5135106;28;20027;-72
2022/01/06 01:35:09;;;;;;;11.35;2.35;;;2.40;1.00;;;;;;5135529;28;20461;-72
2022/01/06 01:37:37;;;;;;;8.77;2.10;;;2.50;1.00;;;;;;5135493;27;20522;-72
2022/01/06 01:40:08;;;;;;;8.00;2.10;;;2.70;1.00;;;;;;5135372;28;20538;-72
2022/01/06 01:42:35;;;;;;;8.43;2.55;;;2.50;1.00;;;;;;5135277;28;20497;-72
2022/01/06 01:45:02;;;;;;;10.38;2.67;;;2.60;1.00;;;;;;5135270;28;20127;-72
2022/01/06 01:47:37;;;;;;;9.18;2.90;;;2.50;1.00;;;;;;5134951;27;20366;-72
2022/01/06 01:50:13;;;;;;;8.20;2.80;;;2.40;1.00;;;;;;5139239;27;20035;-72
2022/01/06 01:52:41;;;;;;;9.95;2.80;;;2.30;1.00;;;;;;5138564;27;20105;-72
2022/01/06 01:55:08;;;;;;;8.23;2.13;;;2.20;1.00;;;;;;5138766;27;20027;-72
2022/01/06 01:57:34;;;;;;;13.60;2.53;;;2.10;1.00;;;;;;5138792;27;20045;-72
2022/01/06 02:00:01;;;;;;;10.25;2.90;;;2.00;1.00;;;;;;5139296;27;20442;-72
2022/01/06 02:02:28;;;;;;;9.30;2.22;;;2.10;1.00;;;;;;5138464;27;20035;-72
2022/01/06 02:04:54;;;;;;;7.80;2.00;;;2.20;1.00;;;;;;5138092;27;20454;-72
2022/01/06 02:07:20;;;;;;;10.50;2.60;;;2.30;1.00;;;;;;5138307;27;20067;-72
2022/01/06 02:09:45;;;;;;;8.68;2.50;;;2.50;1.00;;;;;;5138268;27;20030;-72
2022/01/06 02:12:23;;;;;;;8.23;2.55;;;2.50;1.00;;;;;;5137690;27;20095;-72
2022/01/06 02:14:48;;;;;;;8.30;2.30;;;2.40;1.00;;;;;;5138360;27;20473;-72
2022/01/06 02:17:14;;;;;;;6.80;1.90;;;2.30;1.00;;;;;;5138085;27;20043;-72
2022/01/06 02:19:40;;;;;;;8.27;1.83;;;2.50;1.00;;;;;;5138020;27;20035;-72
2022/01/06 02:22:06;;;;;;;10.73;2.35;;;2.30;1.00;;;;;;5137990;27;20087;-72
2022/01/06 02:24:32;;;;;;;7.22;1.60;;;2.30;1.00;;;;;;5138155;27;20034;-72
2022/01/06 02:26:58;;;;;;;11.95;2.50;;;2.20;1.00;;;;;;5137912;27;20467;-72
2022/01/06 02:29:23;;;;;;;9.20;1.83;;;2.10;1.00;;;;;;5138179;27;20482;-72
2022/01/06 02:31:49;;;;;;;9.65;2.10;;;2.10;1.00;;;;;;5137902;27;20039;-72
2022/01/06 02:34:15;;;;;;;6.38;1.90;;;1.90;1.00;;;;;;5137246;27;20039;-72
2022/01/06 02:36:41;;;;;;;9.27;2.97;;;1.90;1.00;;;;;;5137658;27;20035;-72
2022/01/06 02:39:08;;;;;;;7.15;2.00;;;1.80;1.00;;;;;;5137423;27;20546;-72
2022/01/06 02:41:34;;;;;;;8.13;2.20;;;1.90;1.00;;;;;;5137537;27;20039;-72
2022/01/06 02:44:01;;;;;;;8.25;2.25;;;1.70;1.00;;;;;;5137583;27;20061;-72
2022/01/06 02:46:27;;;;;;;6.65;2.38;;;1.70;1.00;;;;;;5137480;27;20027;-72
2022/01/06 02:48:53;;;;;;;7.95;2.15;;;1.60;1.00;;;;;;5137344;27;20577;-72
2022/01/06 02:51:18;;;;;;;12.73;1.90;;;1.70;1.00;;;;;;5137416;27;20042;-72
2022/01/06 02:53:44;;;;;;;6.80;1.90;;;1.60;1.00;;;;;;5136997;27;20073;-72
2022/01/06 02:56:10;;;;;;;9.63;1.95;;;1.50;1.00;;;;;;5137006;27;20039;-72
2022/01/06 02:58:36;;;;;;;6.20;1.90;;;1.50;1.00;;;;;;5136925;27;20545;-72
2022/01/06 03:01:01;;;;;;;7.00;1.85;;;1.40;1.00;;;;;;5136872;27;20039;-72
2022/01/06 03:03:27;;;;;;;8.27;2.22;;;1.50;1.00;;;;;;5137014;27;20099;-72
2022/01/06 03:05:53;;;;;;;8.60;2.17;;;1.50;1.00;;;;;;5137126;27;20038;-72
2022/01/06 03:08:22;;;;;;;9.07;2.10;;;1.50;1.00;;;;;;5137340;27;20035;-72
2022/01/06 03:10:50;;;;;;;9.98;2.15;;;1.50;1.00;;;;;;5136841;27;20043;-72
2022/01/06 03:13:15;;;;;;;8.82;2.22;;;1.60;1.00;;;;;;5137119;27;20038;-72
2022/01/06 03:15:41;;;;;;;6.07;1.75;;;1.70;1.00;;;;;;5136959;27;20039;-72
2022/01/06 03:18:07;;;;;;;5.72;1.92;;;1.60;1.00;;;;;;5137021;27;20026;-72
2022/01/06 03:20:34;;;;;;;10.40;2.00;;;1.60;1.00;;;;;;5137465;27;20041;-72
2022/01/06 03:23:00;;;;;;;10.25;2.00;;;1.60;1.00;;;;;;5136717;27;20548;-72
2022/01/06 03:25:26;;;;;;;8.73;2.22;;;1.60;1.00;;;;;;5136741;27;20462;-72
2022/01/06 03:27:52;;;;;;;5.25;1.65;;;1.50;1.00;;;;;;5136564;27;20027;-72
2022/01/06 03:30:20;;;;;;;10.73;2.22;;;1.30;1.00;;;;;;5136657;27;20035;-72
2022/01/06 03:32:46;;;;;;;8.75;2.42;;;1.40;1.00;;;;;;5136638;27;20037;-72
2022/01/06 03:35:18;;;;;;;11.52;2.28;;;1.40;1.00;;;;;;5136605;27;20039;-72
2022/01/06 03:37:44;;;;;;;5.85;1.63;;;1.40;1.00;;;;;;5136908;27;20469;-72
2022/01/06 03:40:11;;;;;;;5.63;1.67;;;1.30;1.00;;;;;;5136393;27;20477;-72
2022/01/06 03:42:38;;;;;;;9.52;2.10;;;1.50;1.00;;;;;;5136734;27;20358;-72
2022/01/06 03:45:08;;;;;;;5.90;2.03;;;1.50;1.00;;;;;;5136719;27;20035;-72
2022/01/06 03:47:34;;;;;;;7.63;2.40;;;1.60;1.00;;;;;;5136707;27;20464;-72
2022/01/06 03:50:00;;;;;;;10.57;2.40;;;1.60;1.00;;;;;;5136305;27;20031;-72
2022/01/06 03:52:26;;;;;;;8.95;2.05;;;1.50;1.00;;;;;;5136356;27;20027;-72
2022/01/06 03:54:52;;;;;;;10.52;2.10;;;1.40;1.00;;;;;;5136503;27;20038;-72
2022/01/06 03:57:18;;;;;;;11.00;2.05;;;1.50;1.00;;;;;;5136380;27;20365;-72
2022/01/06 03:59:44;;;;;;;14.18;2.55;;;1.40;1.00;;;;;;5136469;27;20039;-72
2022/01/06 04:02:10;;;;;;;9.52;2.28;;;1.40;1.00;;;;;;5136068;27;20042;-72
2022/01/06 04:04:36;;;;;;;8.80;2.10;;;1.40;1.00;;;;;;5135887;27;20121;-72
2022/01/06 04:07:02;;;;;;;9.30;2.00;;;1.40;1.00;;;;;;5135962;27;20098;-72
2022/01/06 04:09:27;;;;;;;10.15;2.10;;;1.40;1.00;;;;;;5136591;27;20037;-72
2022/01/06 04:11:53;;;;;;;4.53;1.83;;;1.40;1.00;;;;;;5134805;27;20039;-72
2022/01/06 04:14:19;;;;;;;7.47;1.95;;;1.30;1.00;;;;;;5135730;27;20118;-72
2022/01/06 04:16:45;;;;;;;9.02;1.90;;;1.40;1.00;;;;;;5135544;27;20506;-72
2022/01/06 04:19:11;;;;;;;7.93;2.05;;;1.40;1.00;;;;;;5135795;27;20080;-72
2022/01/06 04:21:37;;;;;;;10.95;1.90;;;1.30;1.00;;;;;;5135732;27;20073;-72
2022/01/06 04:24:03;;;;;;;8.85;2.03;;;1.30;1.00;;;;;;5135440;27;20113;-72
2022/01/06 04:26:29;;;;;;;7.90;2.08;;;1.20;1.00;;;;;;5135355;27;20027;-72
2022/01/06 04:28:54;;;;;;;4.63;1.95;;;1.20;1.00;;;;;;5136059;27;20035;-72
2022/01/06 04:31:20;;;;;;;8.45;2.13;;;1.20;1.00;;;;;;5135392;27;20083;-71
2022/01/06 04:33:46;;;;;;;10.63;2.42;;;1.30;1.00;;;;;;5135438;27;20078;-72
2022/01/06 04:36:12;;;;;;;6.32;1.80;;;1.40;1.00;;;;;;5135717;28;20119;-72
2022/01/06 04:38:38;;;;;;;6.80;2.40;;;1.30;1.00;;;;;;5135231;28;20023;-72
2022/01/06 04:41:04;;;;;;;11.13;1.92;;;1.20;1.00;;;;;;5135449;28;20034;-72
2022/01/06 04:43:30;;;;;;;9.70;2.05;;;1.10;1.00;;;;;;5135553;28;20198;-71
2022/01/06 04:45:56;;;;;;;6.18;2.10;;;1.00;1.00;;;;;;5135159;28;20541;-72
2022/01/06 04:48:22;;;;;;;12.25;2.30;;;1.00;1.00;;;;;;5135262;28;20125;-71
2022/01/06 04:50:48;;;;;;;10.02;2.20;;;0.90;1.00;;;;;;5135577;28;20039;-72
2022/01/06 04:53:14;;;;;;;10.85;2.08;;;1.00;1.00;;;;;;5135377;28;20035;-71
2022/01/06 04:55:39;;;;;;;7.07;2.10;;;1.10;1.00;;;;;;5122565;28;20043;-71
2022/01/06 04:58:06;;;;;;;5.70;2.10;;;1.00;1.00;;;;;;5129049;28;20494;-71
2022/01/06 05:00:32;;;;;;;8.63;2.00;;;1.00;1.00;;;;;;5118880;28;20035;-71
2022/01/06 05:02:57;;;;;;;7.45;2.13;;;1.00;1.00;;;;;;5129958;28;20083;-71
2022/01/06 05:05:23;;;;;;;9.82;2.45;;;1.10;1.00;;;;;;5133413;27;20486;-71
2022/01/06 05:07:49;;;;;;;10.93;2.65;;;1.10;1.00;;;;;;5114755;28;20038;-71
2022/01/06 05:10:15;;;;;;;6.00;1.92;;;1.10;1.00;;;;;;5115104;28;20412;-72
2022/01/06 05:12:43;;;;;;;7.63;1.80;;;1.10;1.00;;;;;;5118510;28;22316;-71
2022/01/06 05:15:11;;;;;;;5.90;1.77;;;1.10;1.00;;;;;;5125889;28;20028;-71
2022/01/06 05:17:37;;;;;;;4.30;1.88;;;1.10;1.00;;;;;;5114224;28;20032;-71
2022/01/06 05:20:07;;;;;;;9.43;2.50;;;1.00;1.00;;;;;;5133747;28;20099;-71
2022/01/06 05:22:34;;;;;;;7.57;2.00;;;1.00;1.00;;;;;;5135225;27;20042;-71
2022/01/06 05:25:00;;;;;;;5.38;2.28;;;1.00;1.00;;;;;;5137072;27;20117;-71
2022/01/06 05:27:26;;;;;;;5.00;2.10;;;1.10;1.00;;;;;;5137473;27;20110;-71
2022/01/06 05:29:52;;;;;;;7.47;2.22;;;1.10;1.00;;;;;;5139617;27;20031;-70
2022/01/06 05:32:18;;;;;;;5.45;1.67;;;1.00;1.00;;;;;;5139361;27;20039;-71
2022/01/06 05:34:44;;;;;;;4.90;1.63;;;1.00;1.00;;;;;;5138881;27;20092;-72
2022/01/06 05:37:10;;;;;;;9.15;2.50;;;1.10;1.00;;;;;;5138943;27;20042;-71
2022/01/06 05:39:36;;;;;;;6.32;1.65;;;1.10;1.00;;;;;;5139166;27;20084;-72
2022/01/06 05:42:02;;;;;;;7.25;1.73;;;1.30;1.00;;;;;;5139038;27;20080;-72
2022/01/06 05:44:32;;;;;;;8.80;1.67;;;1.30;1.00;;;;;;5139072;27;20041;-72
2022/01/06 05:46:58;;;;;;;7.20;1.58;;;1.10;1.00;;;;;;5138907;27;20178;-71
2022/01/06 05:49:24;;;;;;;8.55;1.80;;;1.20;1.00;;;;;;5138733;27;20075;-71
2022/01/06 05:51:50;;;;;;;10.63;2.28;;;1.20;1.00;;;;;;5139093;27;20069;-71
2022/01/06 05:54:15;;;;;;;6.00;1.92;;;1.20;1.00;;;;;;5138486;27;20035;-72
2022/01/06 05:56:41;;;;;;;9.90;2.25;;;1.20;1.00;;;;;;5138753;27;20083;-72
2022/01/06 05:59:07;;;;;;;6.32;1.92;;;1.10;1.00;;;;;;5138349;27;20031;-72
2022/01/06 06:01:33;;;;;;;6.53;1.50;;;0.90;1.00;;;;;;5138371;27;20042;-72
2022/01/06 06:03:59;;;;;;;4.60;2.03;;;1.10;1.00;;;;;;5138816;27;20421;-72
2022/01/06 06:06:24;;;;;;;4.93;1.67;;;1.10;1.00;;;;;;5138529;27;20062;-72
2022/01/06 06:08:50;;;;;;;4.95;1.38;;;1.30;1.00;;;;;;5138359;27;20027;-72
2022/01/06 06:11:16;;;;;;;8.93;1.98;;;1.50;1.00;;;;;;5137832;27;20054;-72
2022/01/06 06:13:42;;;;;;;3.60;1.52;;;1.50;1.00;;;;;;5138143;27;20041;-75
2022/01/06 06:16:08;;;;;;;9.77;1.92;;;1.80;1.00;;;;;;5138082;27;20035;-72
2022/01/06 06:18:34;;;;;;;4.35;1.42;;;1.80;1.00;;;;;;5137866;27;20068;-72
2022/01/06 06:20:59;;;;;;;7.70;2.22;;;1.70;1.00;;;;;;5134055;27;20040;-71
2022/01/06 06:23:25;;;;;;;5.22;1.60;;;1.80;1.00;;;;;;5128130;27;20043;-72
2022/01/06 06:25:51;;;;;;;7.22;1.98;;;1.80;1.00;;;;;;5123796;27;20418;-71
2022/01/06 06:28:17;;;;;;;5.20;1.55;;;1.70;1.00;;;;;;5117408;28;20110;-72
2022/01/06 06:30:43;;;;;;;9.10;2.28;;;1.30;1.00;;;;;;5117342;28;20453;-71
2022/01/06 06:33:08;;;;;;;6.65;1.73;;;1.10;1.00;;;;;;5116775;28;20099;-71
2022/01/06 06:35:34;;;;;;;7.95;2.80;;;1.30;1.00;;;;;;5116571;28;20047;-76
2022/01/06 06:38:00;;;;;;;3.95;1.65;;;1.60;1.00;;;;;;5116599;28;20110;-71
2022/01/06 06:40:26;;;;;;;9.00;2.05;;;1.60;1.00;;;;;;5117083;28;20066;-72
2022/01/06 06:42:52;;;;;;;8.60;1.98;;;1.40;1.00;;;;;;5117057;28;20172;-72
2022/01/06 06:45:20;;;;;;;7.95;2.35;;;1.30;1.00;;;;;;5117023;28;20035;-72
2022/01/06 06:47:46;;;;;;;5.45;2.20;;;1.20;1.00;;;;;;5116520;28;20024;-72
2022/01/06 06:50:15;;;;;;;8.35;2.08;;;1.10;1.00;;;;;;5117156;28;20031;-72
2022/01/06 06:52:42;;;;;;;7.07;1.88;;;1.10;1.00;;;;;;5116721;28;20119;-72
2022/01/06 06:55:08;;;;;;;11.93;2.75;;;1.10;1.00;;;;;;5116545;28;20573;-72
2022/01/06 06:57:34;;;;;;;7.45;1.98;;;1.00;1.00;;;;;;5116724;28;20031;-72
2022/01/06 07:00:03;;;;;;;9.88;2.35;;;1.10;1.00;;;;;;5116119;28;20034;-72
2022/01/06 07:02:32;;;;;;;6.40;2.03;;;1.10;1.00;;;;;;5116559;28;20031;-72
2022/01/06 07:04:59;;;;;;;6.20;1.85;;;1.10;1.00;;;;;;5116424;28;20504;-72
2022/01/06 07:07:26;;;;;;;9.80;3.00;;;1.20;1.00;;;;;;5116467;28;20041;-72
2022/01/06 07:09:51;;;;;;;5.82;2.35;;;1.10;1.00;;;;;;5116182;28;20040;-72
2022/01/06 07:12:17;;;;;;;8.05;1.80;;;1.10;1.00;;;;;;5116530;28;20031;-72
2022/01/06 07:14:43;;;;;;;5.65;1.92;;;1.10;1.00;;;;;;5117198;28;20493;-72
2022/01/06 07:17:09;;;;;;;11.55;2.58;;;0.90;1.00;;;;;;5116688;28;20053;-72
2022/01/06 07:19:35;;;;;;;7.47;1.83;;;1.00;1.00;;;;;;5116629;28;20042;-72
2022/01/06 07:22:01;;;;;;;11.05;2.30;;;1.00;1.00;;;;;;5116613;28;20031;-72
2022/01/06 07:24:27;;;;;;;8.02;2.30;;;1.00;1.00;;;;;;5116525;28;20168;-72
2022/01/06 07:26:52;;;;;;;7.78;2.40;;;1.10;1.00;;;;;;5116481;28;20043;-72
2022/01/06 07:29:18;;;;;;;9.85;2.67;;;1.20;1.00;;;;;;5116784;28;20035;-72
2022/01/06 07:31:44;;;;;;;7.70;2.17;;;1.20;1.00;;;;;;5116127;28;20031;-72
2022/01/06 07:34:10;;;;;;;11.05;2.35;;;1.20;1.00;;;;;;5116404;28;20031;-72
2022/01/06 07:36:36;;;;;;;5.15;1.95;;;1.20;1.00;;;;;;5116331;28;20039;-72
2022/01/06 07:39:03;;;;;;;6.97;2.17;;;1.60;1.00;;;;;;5116043;28;20046;-72
2022/01/06 07:41:29;;;;;;;4.47;1.67;;;1.50;1.00;;;;;;5115905;28;20031;-73
2022/01/06 07:43:55;;;;;;;9.43;1.92;;;1.40;1.00;;;;;;5116231;28;20080;-72
2022/01/06 07:46:21;;;;;;;6.18;2.05;;;1.40;1.00;;;;;;5115997;28;20493;-72
2022/01/06 07:48:57;;;;;;;5.00;2.05;;;1.40;1.00;;;;;;5116190;28;20032;-72
2022/01/06 07:51:27;;;;;;;6.03;1.75;;;1.50;1.00;;;;;;5115427;28;20084;-72
2022/01/06 07:53:55;;;;;;;8.50;2.10;;;1.50;1.00;;;;;;5115781;28;20059;-72
2022/01/06 07:56:21;;;;;;;4.50;1.98;;;1.50;1.00;;;;;;5115949;28;20039;-72
2022/01/06 07:58:48;;;;;;;6.97;1.98;;;1.50;1.00;;;;;;5115680;28;20461;-72
2022/01/06 08:01:15;;;;;;;9.20;2.20;;;1.40;1.00;;;;;;5115598;28;20466;-72
2022/01/06 08:03:41;;;;;;;9.82;2.03;;;1.40;1.00;;;;;;5115590;28;20122;-72
2022/01/06 08:06:08;;;;;;;7.90;2.22;;;1.30;1.00;;;;;;5115777;28;20046;-72
2022/01/06 08:08:34;;;;;;;10.07;2.55;;;1.30;1.00;;;;;;5115653;28;20152;-72
2022/01/06 08:10:59;;;;;;;11.55;3.03;;;1.30;1.00;;;;;;5115791;28;20130;-72
2022/01/06 08:13:25;;;;;;;7.30;2.28;;;1.30;1.00;;;;;;5115239;28;20132;-72
2022/01/06 08:15:52;;;;;;;5.63;2.17;;;1.50;1.00;;;;;;5097182;28;20105;-72
2022/01/06 08:18:18;;;;;;;5.47;2.00;;;1.80;1.00;;;;;;5115713;28;20339;-72
2022/01/06 08:20:44;;;;;;;5.57;1.95;;;1.60;1.00;;;;;;5115633;28;20081;-72
2022/01/06 08:23:10;;;;;;;4.50;1.75;;;1.70;1.00;;;;;;5114983;28;20027;-72
2022/01/06 08:25:37;;;;;;;10.82;2.60;;;1.90;1.00;;;;;;5115141;28;20061;-72
2022/01/06 08:28:03;;;;;;;8.60;3.28;;;2.00;1.00;;;;;;5115153;28;20470;-72
2022/01/06 08:30:29;;;;;;;7.65;2.30;;;1.90;1.00;;;;;;5115457;28;20039;-72
2022/01/06 08:32:56;;;;;;;9.95;2.47;;;2.10;1.00;;;;;;5114679;28;20381;-73
2022/01/06 08:35:23;;;;;;;6.25;1.77;;;2.00;1.00;;;;;;5114694;28;20039;-74
2022/01/06 08:37:49;;;;;;;6.50;2.33;;;2.00;1.00;;;;;;5114519;28;20039;-72
2022/01/06 08:40:15;;;;;;;4.70;1.60;;;2.00;1.00;;;;;;5114815;28;20047;-71
2022/01/06 08:42:41;;;;;;;8.38;2.28;;;2.30;1.00;;;;;;5113667;28;20043;-72
2022/01/06 08:45:08;;;;;;;7.03;2.13;;;2.30;1.00;;;;;;5113000;28;20125;-72
2022/01/06 08:47:34;;;;;;;5.97;2.25;;;2.20;1.00;;;;;;5114800;28;20039;-72
2022/01/06 08:50:00;;;;;;;6.13;1.88;;;2.30;1.00;;;;;;5114039;28;20096;-72
2022/01/06 08:52:26;;;;;;;3.55;1.30;;;2.40;1.00;;;;;;5117618;27;20489;-72
2022/01/06 08:54:52;;;;;;;6.07;1.90;;;2.30;1.00;;;;;;5114480;28;20044;-72
2022/01/06 08:57:18;;;;;;;7.28;1.80;;;2.20;1.00;;;;;;5114033;28;20130;-72
2022/01/06 08:59:45;;;;;;;4.68;1.70;;;2.30;1.00;;;;;;5120645;27;20035;-72
2022/01/06 09:02:11;;;;;;;8.85;3.13;;;2.30;1.00;;;;;;5127197;27;20071;-72
2022/01/06 09:04:36;;;;;;;9.35;2.90;;;2.20;1.00;;;;;;5118743;28;20039;-72
2022/01/06 09:07:03;;;;;;;5.93;2.35;;;2.20;1.00;;;;;;5118774;28;20470;-72
2022/01/06 09:09:30;;;;;;;6.82;2.90;;;2.10;1.00;;;;;;5118808;28;20063;-72
2022/01/06 09:11:55;;;;;;;12.18;2.90;;;2.20;1.00;;;;;;5118336;28;20509;-72
2022/01/06 09:14:22;;;;;;;8.40;2.40;;;2.30;1.00;;;;;;5118335;28;20039;-72
2022/01/06 09:16:49;;;;;;;7.88;2.67;;;2.30;1.00;;;;;;5118207;28;20616;-72
2022/01/06 09:19:16;;;;;;;6.80;2.33;;;2.30;1.00;;;;;;5118495;28;20114;-72
2022/01/06 09:21:42;;;;;;;7.20;2.28;;;2.40;1.00;;;;;;5118016;28;20043;-72
2022/01/06 09:24:08;;;;;;;8.75;2.30;;;2.40;1.00;;;;;;5118739;28;20062;-72
2022/01/06 09:26:35;;;;;;;9.77;2.22;;;2.40;1.00;;;;;;5118406;28;20108;-70
2022/01/06 09:29:03;;;;;;;7.03;2.22;;;2.50;1.00;;;;;;5118093;28;20038;-73
2022/01/06 09:31:29;;;;;;;9.75;2.65;;;2.50;1.00;;;;;;5118375;28;20035;-72
2022/01/06 09:33:55;;;;;;;6.40;1.65;;;2.50;1.00;;;;;;5117706;28;20043;-72
2022/01/06 09:36:21;;;;;;;9.68;3.15;;;2.50;1.00;;;;;;5121303;27;20122;-73
2022/01/06 09:38:47;;;;;;;8.90;2.60;;;2.50;1.00;;;;;;5135924;27;20358;-71
2022/01/06 09:41:14;;;;;;;7.90;2.50;;;2.40;1.00;;;;;;5138548;27;20042;-73
2022/01/06 09:43:43;;;;;;;12.27;2.72;;;2.50;1.00;;;;;;5138316;27;20431;-73
2022/01/06 09:46:10;;;;;;;29.35;11.52;;;2.40;1.00;;;;;;5138572;27;20122;-73
2022/01/06 09:48:38;;;;;;;26.45;15.32;;;2.40;1.00;;;;;;5138513;27;20142;-73
2022/01/06 09:51:05;;;;;;;26.00;11.98;;;2.40;1.00;;;;;;5138661;27;20038;-73
2022/01/06 09:53:30;;;;;;;21.60;9.60;;;2.50;1.00;;;;;;5138789;27;20126;-73
2022/01/06 09:55:56;;;;;;;17.42;8.27;;;2.40;1.00;;;;;;5138276;27;20066;-74
2022/01/06 09:58:25;;;;;;;13.73;7.47;;;2.40;1.00;;;;;;5138509;27;20110;-74
2022/01/06 10:00:52;;;;;;;7.28;2.45;;;2.30;1.00;;;;;;5137886;27;20030;-73
2022/01/06 10:03:18;;;;;;;10.48;2.80;;;2.50;1.00;;;;;;5137862;27;20532;-73
2022/01/06 10:05:46;;;;;;;11.93;3.42;;;2.50;1.00;;;;;;5138098;27;20065;-74
2022/01/06 10:08:14;;;;;;;10.85;3.33;;;2.60;1.00;;;;;;5135518;27;20413;-73
2022/01/06 10:10:40;;;;;;;13.70;2.88;;;2.60;1.00;;;;;;5137008;27;20078;-73
2022/01/06 10:13:09;;;;;;;7.38;2.33;;;2.60;1.00;;;;;;5137087;27;20035;-74
2022/01/06 10:15:37;;;;;;;7.60;2.60;;;2.70;1.00;;;;;;5138299;27;20140;-74
2022/01/06 10:18:15;;;;;;;8.07;3.50;;;2.60;1.00;;;;;;5138187;27;20023;-73
2022/01/06 10:20:41;;;;;;;7.63;3.17;;;2.60;1.00;;;;;;5138455;27;20039;-75
2022/01/06 10:23:15;;;;;;;8.27;3.75;;;2.60;1.00;;;;;;5138161;27;20034;-71
2022/01/06 10:25:49;;;;;;;8.65;2.90;;;2.70;1.00;;;;;;5137863;27;20168;-72
2022/01/06 10:28:20;;;;;;;14.18;3.85;;;2.60;1.00;;;;;;5137993;27;20544;-73
2022/01/06 10:30:49;;;;;;;9.80;3.40;;;2.60;1.00;;;;;;5137875;27;20027;-73
2022/01/06 10:33:20;;;;;;;7.90;2.58;;;2.60;1.00;;;;;;5138119;27;20038;-73
2022/01/06 10:35:46;;;;;;;10.20;2.75;;;2.70;1.00;;;;;;5137425;27;20038;-73
2022/01/06 10:38:12;;;;;;;6.30;2.42;;;2.60;1.00;;;;;;5137834;27;20027;-73
2022/01/06 10:40:38;;;;;;;10.63;2.92;;;2.70;1.00;;;;;;5137854;27;20096;-73
2022/01/06 10:43:07;;;;;;;7.40;2.70;;;2.70;1.00;;;;;;5137870;27;20031;-73
2022/01/06 10:45:34;;;;;;;9.02;3.08;;;2.80;1.00;;;;;;5137597;27;20066;-73
2022/01/06 10:48:03;;;;;;;10.68;3.90;;;2.70;1.00;;;;;;5137395;27;20083;-73
2022/01/06 10:50:30;;;;;;;7.63;2.83;;;2.70;1.00;;;;;;5137123;27;20034;-73
2022/01/06 10:53:00;;;;;;;8.35;3.35;;;2.80;1.00;;;;;;5137658;27;20031;-73
2022/01/06 10:55:31;;;;;;;9.05;3.03;;;2.80;1.00;;;;;;5138268;27;20038;-73
2022/01/06 10:58:05;;;;;;;8.52;3.10;;;2.80;1.00;;;;;;5137962;27;20092;-73
2022/01/06 11:00:55;;;;;;;8.98;4.03;;;2.80;1.00;;;;;;5137664;27;20473;-73
2022/01/06 11:03:23;;;;;;;7.43;2.67;;;2.80;1.00;;;;;;5137762;27;20089;-73
2022/01/06 11:05:54;;;;;;;8.32;2.33;;;2.90;1.00;;;;;;5137255;27;20114;-73
2022/01/06 11:08:23;;;;;;;;;;;3.00;1.00;;;;;;5137683;27;20065;-72
2022/01/06 11:11:02;;;;;;;9.85;2.80;;;3.00;1.00;;;;;;5137721;27;19919;-73
2022/01/06 11:13:40;;;;;;;9.23;2.70;;;3.00;1.00;;;;;;5136966;27;20069;-73
2022/01/06 11:16:07;;;;;;;10.27;3.35;;;3.00;1.00;;;;;;5136601;27;20512;-73
2022/01/06 11:18:34;;;;;;;10.88;2.88;;;3.10;1.00;;;;;;5137077;27;20034;-73
2022/01/06 11:21:04;;;;;;;8.98;3.08;;;3.10;1.00;;;;;;5136577;27;20511;-74
2022/01/06 11:23:31;;;;;;;8.93;4.53;;;3.10;1.00;;;;;;5137035;27;20035;-75
2022/01/06 11:26:12;;;;;;;9.85;2.67;;;3.20;1.00;;;;;;5137042;27;20031;-75
2022/01/06 11:28:42;;;;;;;7.57;2.53;;;3.20;1.00;;;;;;5137549;27;20080;-74
2022/01/06 11:31:17;;;;;;;8.93;2.72;;;3.30;1.00;;;;;;5137212;27;20071;-73
2022/01/06 11:33:44;;;;;;;10.35;2.72;;;3.30;1.00;;;;;;5136755;27;20358;-73
2022/01/06 11:36:32;;;;;;;8.65;2.72;;;3.40;1.00;;;;;;5136788;27;20064;-73
2022/01/06 11:39:04;;;;;;;4.78;2.00;;;3.60;1.00;;;;;;5136598;27;20031;-73
2022/01/06 11:41:34;;;;;;;9.10;3.28;;;3.70;1.00;;;;;;5136480;27;20031;-73
2022/01/06 11:44:02;;;;;;;5.23;2.63;;;4.00;1.00;;;;;;5136694;27;20031;-73
2022/01/06 11:46:40;;;;;;;7.15;2.70;;;4.00;1.00;;;;;;5136333;27;20034;-73
2022/01/06 11:49:05;;;;;;;11.18;2.65;;;4.00;1.00;;;;;;5136316;27;20114;-73
2022/01/06 11:51:36;;;;;;;8.57;2.90;;;4.00;1.00;;;;;;5136904;27;20110;-73
2022/01/06 11:54:32;;;;;;;;;;;4.10;1.00;;;;;;5136605;27;20042;-73
2022/01/06 11:56:57;;;;;;;5.65;1.70;;;4.00;1.00;;;;;;5114164;27;19907;-73
2022/01/06 11:59:31;;;;;;;9.60;3.55;;;4.00;1.00;;;;;;5136618;27;20031;-73
2022/01/06 12:01:58;;;;;;;9.68;4.00;;;4.00;1.00;;;;;;5136355;27;20366;-74
2022/01/06 12:04:25;;;;;;;6.45;2.38;;;4.00;1.00;;;;;;5136196;27;20046;-73
2022/01/06 12:07:03;;;;;;;10.55;2.95;;;4.00;1.00;;;;;;5136360;27;20031;-73
2022/01/06 12:09:28;;;;;;;8.05;2.00;;;3.90;1.00;;;;;;5136261;27;20035;-73
2022/01/06 12:12:05;;;;;;;9.88;5.18;;;3.80;1.00;;;;;;5135457;27;20053;-73
2022/01/06 12:14:32;;;;;;;5.93;1.90;;;3.80;1.00;;;;;;5129653;27;20027;-73
2022/01/06 12:17:07;;;;;;;8.35;2.47;;;3.80;1.00;;;;;;5119855;27;20520;-73
2022/01/06 12:19:34;;;;;;;7.97;3.30;;;3.80;1.00;;;;;;5114928;28;20040;-73
2022/01/06 12:22:00;;;;;;;9.77;3.03;;;3.80;1.00;;;;;;5115182;28;20077;-73
2022/01/06 12:24:26;;;;;;;10.35;4.55;;;3.80;1.00;;;;;;5114983;28;20039;-73
2022/01/06 12:26:54;;;;;;;8.80;3.28;;;3.90;1.00;;;;;;5114875;28;20081;-73
2022/01/06 12:29:27;;;;;;;8.10;1.77;;;3.90;1.00;;;;;;5096722;28;20032;-73
2022/01/06 12:32:04;;;;;;;14.35;3.85;;;4.00;1.00;;;;;;5114088;28;20512;-73
2022/01/06 12:34:30;;;;;;;6.00;2.10;;;3.90;1.00;;;;;;5096835;28;20482;-73
2022/01/06 12:36:56;;;;;;;6.30;2.17;;;4.00;1.00;;;;;;5114780;28;20042;-73
2022/01/06 12:39:22;;;;;;;5.22;2.75;;;3.90;1.00;;;;;;5115127;28;20066;-73
2022/01/06 12:41:51;;;;;;;6.78;2.45;;;4.00;1.00;;;;;;5114768;28;20423;-73
2022/01/06 12:44:18;;;;;;;8.35;2.35;;;4.00;1.00;;;;;;5114975;28;20177;-73
2022/01/06 12:46:45;;;;;;;5.25;1.90;;;4.10;1.00;;;;;;5114987;28;20080;-73
2022/01/06 12:49:12;;;;;;;9.13;2.65;;;4.20;1.00;;;;;;5114797;28;20061;-74
2022/01/06 12:51:40;;;;;;;7.75;3.17;;;4.20;1.00;;;;;;5114541;28;20420;-74
2022/01/06 12:54:13;;;;;;;5.10;1.80;;;4.20;1.00;;;;;;5114240;28;20037;-74
2022/01/06 12:56:44;;;;;;;4.90;1.55;;;4.30;1.00;;;;;;5114900;28;20036;-74
2022/01/06 12:59:12;;;;;;;7.93;2.20;;;4.30;1.00;;;;;;5114914;28;20046;-74
2022/01/06 13:01:39;;;;;;;5.32;1.65;;;4.40;1.00;;;;;;5114850;28;20038;-75
2022/01/06 13:04:06;;;;;;;14.00;5.43;;;4.40;1.00;;;;;;5114806;28;20051;-74
2022/01/06 13:06:35;;;;;;;16.52;4.75;;;4.40;1.00;;;;;;5114767;28;20038;-74
2022/01/06 13:09:14;;;;;;;8.05;2.63;;;4.30;1.00;;;;;;5114212;28;20493;-75